sensor_id;sensor_type;location;lat;lon;timestamp;P1;durP1;ratioP1;P2;durP2;ratioP2
27265;SDS011;14766;51.380;13.762;2023-06-22T00:01:22;6.93;;;5.25;;
27265;SDS011;14766;51.380;13.762;2023-06-22T00:03:50;6.50;;;5.05;;
27265;SDS011;14766;51.380;13.762;2023-06-22T00:06:17;6.22;;;4.97;;
27265;SDS011;14766;51.380;13.762;2023-06-22T00:08:44;5.43;;;4.70;;
27265;SDS011;14766;51.380;13.762;2023-06-22T00:11:11;5.70;;;4.93;;
27265;SDS011;14766;51.380;13.762;2023-06-22T00:13:39;5.30;;;4.60;;
27265;SDS011;14766;51.380;13.762;2023-06-22T00:16:06;5.82;;;5.13;;
27265;SDS011;14766;51.380;13.762;2023-06-22T00:18:33;6.32;;;5.13;;
27265;SDS011;14766;51.380;13.762;2023-06-22T00:21:00;7.00;;;5.13;;
27265;SDS011;14766;51.380;13.762;2023-06-22T00:23:27;6.57;;;4.95;;
27265;SDS011;14766;51.380;13.762;2023-06-22T00:25:54;6.95;;;5.40;;
27265;SDS011;14766;51.380;13.762;2023-06-22T00:28:21;6.55;;;5.35;;
27265;SDS011;14766;51.380;13.762;2023-06-22T00:30:48;5.93;;;5.30;;
27265;SDS011;14766;51.380;13.762;2023-06-22T00:33:17;6.35;;;5.72;;
27265;SDS011;14766;51.380;13.762;2023-06-22T00:35:44;5.50;;;5.00;;
27265;SDS011;14766;51.380;13.762;2023-06-22T00:38:11;6.47;;;5.65;;
27265;SDS011;14766;51.380;13.762;2023-06-22T00:40:41;6.78;;;5.00;;
27265;SDS011;14766;51.380;13.762;2023-06-22T00:43:08;6.00;;;5.43;;
27265;SDS011;14766;51.380;13.762;2023-06-22T00:45:35;6.35;;;5.10;;
27265;SDS011;14766;51.380;13.762;2023-06-22T00:48:02;6.30;;;5.65;;
27265;SDS011;14766;51.380;13.762;2023-06-22T00:50:32;8.40;;;5.82;;
27265;SDS011;14766;51.380;13.762;2023-06-22T00:53:10;7.05;;;5.13;;
27265;SDS011;14766;51.380;13.762;2023-06-22T00:55:42;5.18;;;4.68;;
27265;SDS011;14766;51.380;13.762;2023-06-22T00:58:18;5.30;;;4.80;;
27265;SDS011;14766;51.380;13.762;2023-06-22T01:00:48;5.47;;;4.97;;
27265;SDS011;14766;51.380;13.762;2023-06-22T01:03:15;5.72;;;5.13;;
27265;SDS011;14766;51.380;13.762;2023-06-22T01:05:44;5.75;;;5.15;;
27265;SDS011;14766;51.380;13.762;2023-06-22T01:08:16;5.68;;;5.15;;
27265;SDS011;14766;51.380;13.762;2023-06-22T01:11:18;5.93;;;5.32;;
27265;SDS011;14766;51.380;13.762;2023-06-22T01:14:12;5.95;;;5.35;;
27265;SDS011;14766;51.380;13.762;2023-06-22T01:17:00;6.13;;;5.53;;
27265;SDS011;14766;51.380;13.762;2023-06-22T01:19:45;6.50;;;5.82;;
27265;SDS011;14766;51.380;13.762;2023-06-22T01:22:17;6.43;;;5.80;;
27265;SDS011;14766;51.380;13.762;2023-06-22T01:30:13;6.53;;;5.72;;
27265;SDS011;14766;51.380;13.762;2023-06-22T01:32:43;7.28;;;5.88;;
27265;SDS011;14766;51.380;13.762;2023-06-22T01:35:11;6.43;;;5.82;;
27265;SDS011;14766;51.380;13.762;2023-06-22T01:37:39;8.43;;;6.82;;
27265;SDS011;14766;51.380;13.762;2023-06-22T01:40:06;6.40;;;5.70;;
27265;SDS011;14766;51.380;13.762;2023-06-22T01:42:35;7.32;;;6.55;;
27265;SDS011;14766;51.380;13.762;2023-06-22T01:45:06;7.32;;;6.55;;
27265;SDS011;14766;51.380;13.762;2023-06-22T01:47:36;7.63;;;6.65;;
27265;SDS011;14766;51.380;13.762;2023-06-22T01:50:05;6.65;;;5.95;;
27265;SDS011;14766;51.380;13.762;2023-06-22T01:52:33;7.60;;;6.80;;
27265;SDS011;14766;51.380;13.762;2023-06-22T01:55:00;6.90;;;6.20;;
27265;SDS011;14766;51.380;13.762;2023-06-22T01:57:28;8.15;;;5.57;;
27265;SDS011;14766;51.380;13.762;2023-06-22T01:59:59;8.93;;;6.57;;
27265;SDS011;14766;51.380;13.762;2023-06-22T02:02:43;7.47;;;6.68;;
27265;SDS011;14766;51.380;13.762;2023-06-22T02:05:28;6.90;;;6.20;;
27265;SDS011;14766;51.380;13.762;2023-06-22T02:08:11;7.63;;;6.45;;
27265;SDS011;14766;51.380;13.762;2023-06-22T02:10:44;6.97;;;6.28;;
27265;SDS011;14766;51.380;13.762;2023-06-22T02:13:13;6.45;;;5.85;;
27265;SDS011;14766;51.380;13.762;2023-06-22T02:15:42;6.95;;;6.25;;
27265;SDS011;14766;51.380;13.762;2023-06-22T02:18:11;7.32;;;6.15;;
27265;SDS011;14766;51.380;13.762;2023-06-22T02:20:39;7.60;;;6.47;;
27265;SDS011;14766;51.380;13.762;2023-06-22T02:23:07;7.63;;;6.47;;
27265;SDS011;14766;51.380;13.762;2023-06-22T02:25:36;6.80;;;6.10;;
27265;SDS011;14766;51.380;13.762;2023-06-22T02:28:05;7.68;;;6.70;;
27265;SDS011;14766;51.380;13.762;2023-06-22T02:30:32;7.78;;;6.55;;
27265;SDS011;14766;51.380;13.762;2023-06-22T02:32:59;7.35;;;6.43;;
27265;SDS011;14766;51.380;13.762;2023-06-22T02:35:27;7.80;;;6.47;;
27265;SDS011;14766;51.380;13.762;2023-06-22T02:37:58;7.45;;;6.13;;
27265;SDS011;14766;51.380;13.762;2023-06-22T02:40:27;7.60;;;6.50;;
27265;SDS011;14766;51.380;13.762;2023-06-22T02:42:57;6.72;;;6.07;;
27265;SDS011;14766;51.380;13.762;2023-06-22T02:45:28;7.20;;;5.90;;
27265;SDS011;14766;51.380;13.762;2023-06-22T02:47:56;7.78;;;6.30;;
27265;SDS011;14766;51.380;13.762;2023-06-22T02:50:23;7.43;;;6.30;;
27265;SDS011;14766;51.380;13.762;2023-06-22T02:52:52;6.72;;;5.80;;
27265;SDS011;14766;51.380;13.762;2023-06-22T02:55:19;9.23;;;6.63;;
27265;SDS011;14766;51.380;13.762;2023-06-22T02:57:56;9.32;;;6.60;;
27265;SDS011;14766;51.380;13.762;2023-06-22T03:02:58;7.63;;;6.82;;
27265;SDS011;14766;51.380;13.762;2023-06-22T03:05:25;7.43;;;6.03;;
27265;SDS011;14766;51.380;13.762;2023-06-22T03:07:56;7.43;;;6.30;;
27265;SDS011;14766;51.380;13.762;2023-06-22T03:10:28;8.30;;;6.90;;
27265;SDS011;14766;51.380;13.762;2023-06-22T03:12:56;7.93;;;6.47;;
27265;SDS011;14766;51.380;13.762;2023-06-22T03:15:23;8.07;;;7.22;;
27265;SDS011;14766;51.380;13.762;2023-06-22T03:17:50;7.63;;;6.38;;
27265;SDS011;14766;51.380;13.762;2023-06-22T03:20:17;8.00;;;6.20;;
27265;SDS011;14766;51.380;13.762;2023-06-22T03:22:45;8.10;;;6.93;;
27265;SDS011;14766;51.380;13.762;2023-06-22T03:25:13;8.23;;;7.18;;
27265;SDS011;14766;51.380;13.762;2023-06-22T03:27:43;7.32;;;6.57;;
27265;SDS011;14766;51.380;13.762;2023-06-22T03:30:11;7.70;;;6.90;;
27265;SDS011;14766;51.380;13.762;2023-06-22T03:32:39;9.25;;;7.28;;
27265;SDS011;14766;51.380;13.762;2023-06-22T03:35:06;8.25;;;6.88;;
27265;SDS011;14766;51.380;13.762;2023-06-22T03:37:35;7.75;;;6.90;;
27265;SDS011;14766;51.380;13.762;2023-06-22T03:40:04;8.00;;;6.72;;
27265;SDS011;14766;51.380;13.762;2023-06-22T03:42:35;9.02;;;7.43;;
27265;SDS011;14766;51.380;13.762;2023-06-22T03:45:03;9.38;;;6.93;;
27265;SDS011;14766;51.380;13.762;2023-06-22T03:47:30;9.30;;;7.45;;
27265;SDS011;14766;51.380;13.762;2023-06-22T03:49:58;8.65;;;7.32;;
27265;SDS011;14766;51.380;13.762;2023-06-22T03:52:25;9.05;;;7.53;;
27265;SDS011;14766;51.380;13.762;2023-06-22T03:54:55;7.82;;;6.93;;
27265;SDS011;14766;51.380;13.762;2023-06-22T03:57:24;9.88;;;7.68;;
27265;SDS011;14766;51.380;13.762;2023-06-22T03:59:51;8.13;;;7.32;;
27265;SDS011;14766;51.380;13.762;2023-06-22T04:02:18;7.65;;;6.85;;
27265;SDS011;14766;51.380;13.762;2023-06-22T04:04:47;8.25;;;6.90;;
27265;SDS011;14766;51.380;13.762;2023-06-22T04:07:14;8.68;;;7.05;;
27265;SDS011;14766;51.380;13.762;2023-06-22T04:09:41;8.38;;;7.43;;
27265;SDS011;14766;51.380;13.762;2023-06-22T04:12:08;8.25;;;7.32;;
27265;SDS011;14766;51.380;13.762;2023-06-22T04:14:35;8.48;;;7.32;;
27265;SDS011;14766;51.380;13.762;2023-06-22T04:17:02;8.13;;;7.13;;
27265;SDS011;14766;51.380;13.762;2023-06-22T04:19:30;9.80;;;7.25;;
27265;SDS011;14766;51.380;13.762;2023-06-22T04:21:57;9.10;;;7.70;;
27265;SDS011;14766;51.380;13.762;2023-06-22T04:24:24;8.30;;;7.15;;
27265;SDS011;14766;51.380;13.762;2023-06-22T04:26:51;10.05;;;8.30;;
27265;SDS011;14766;51.380;13.762;2023-06-22T04:29:21;10.07;;;8.23;;
27265;SDS011;14766;51.380;13.762;2023-06-22T04:31:58;9.95;;;7.65;;
27265;SDS011;14766;51.380;13.762;2023-06-22T04:34:31;9.32;;;8.32;;
27265;SDS011;14766;51.380;13.762;2023-06-22T04:36:59;9.15;;;8.20;;
27265;SDS011;14766;51.380;13.762;2023-06-22T04:39:26;8.52;;;7.63;;
27265;SDS011;14766;51.380;13.762;2023-06-22T04:41:54;9.27;;;8.13;;
27265;SDS011;14766;51.380;13.762;2023-06-22T04:44:27;9.35;;;8.35;;
27265;SDS011;14766;51.380;13.762;2023-06-22T04:46:59;10.52;;;9.10;;
27265;SDS011;14766;51.380;13.762;2023-06-22T04:49:29;10.13;;;8.52;;
27265;SDS011;14766;51.380;13.762;2023-06-22T04:52:00;10.00;;;8.98;;
27265;SDS011;14766;51.380;13.762;2023-06-22T04:54:28;10.45;;;9.13;;
27265;SDS011;14766;51.380;13.762;2023-06-22T04:56:55;9.90;;;8.88;;
27265;SDS011;14766;51.380;13.762;2023-06-22T04:59:23;10.05;;;9.02;;
27265;SDS011;14766;51.380;13.762;2023-06-22T05:04:27;11.30;;;8.98;;
27265;SDS011;14766;51.380;13.762;2023-06-22T05:06:59;11.55;;;9.63;;
27265;SDS011;14766;51.380;13.762;2023-06-22T05:09:31;10.45;;;9.35;;
27265;SDS011;14766;51.380;13.762;2023-06-22T05:12:00;10.77;;;9.68;;
27265;SDS011;14766;51.380;13.762;2023-06-22T05:14:29;11.25;;;10.10;;
27265;SDS011;14766;51.380;13.762;2023-06-22T05:16:57;12.35;;;10.20;;
27265;SDS011;14766;51.380;13.762;2023-06-22T05:19:31;11.73;;;10.52;;
27265;SDS011;14766;51.380;13.762;2023-06-22T05:22:00;11.60;;;10.43;;
27265;SDS011;14766;51.380;13.762;2023-06-22T05:24:27;12.98;;;10.73;;
27265;SDS011;14766;51.380;13.762;2023-06-22T05:26:55;12.15;;;10.85;;
27265;SDS011;14766;51.380;13.762;2023-06-22T05:29:22;11.25;;;9.52;;
27265;SDS011;14766;51.380;13.762;2023-06-22T05:31:50;12.15;;;10.93;;
27265;SDS011;14766;51.380;13.762;2023-06-22T05:34:19;12.30;;;10.48;;
27265;SDS011;14766;51.380;13.762;2023-06-22T05:36:46;12.05;;;10.85;;
27265;SDS011;14766;51.380;13.762;2023-06-22T05:39:14;11.60;;;10.38;;
27265;SDS011;14766;51.380;13.762;2023-06-22T05:41:41;10.75;;;9.73;;
27265;SDS011;14766;51.380;13.762;2023-06-22T05:44:12;11.32;;;9.63;;
27265;SDS011;14766;51.380;13.762;2023-06-22T05:46:40;11.43;;;10.23;;
27265;SDS011;14766;51.380;13.762;2023-06-22T05:49:13;11.40;;;10.30;;
27265;SDS011;14766;51.380;13.762;2023-06-22T05:51:40;13.02;;;11.70;;
27265;SDS011;14766;51.380;13.762;2023-06-22T05:54:08;11.50;;;10.40;;
27265;SDS011;14766;51.380;13.762;2023-06-22T05:56:35;11.13;;;9.98;;
27265;SDS011;14766;51.380;13.762;2023-06-22T05:59:03;11.13;;;10.02;;
27265;SDS011;14766;51.380;13.762;2023-06-22T06:01:30;11.45;;;10.25;;
27265;SDS011;14766;51.380;13.762;2023-06-22T06:04:04;14.10;;;11.02;;
27265;SDS011;14766;51.380;13.762;2023-06-22T06:06:31;10.55;;;9.52;;
27265;SDS011;14766;51.380;13.762;2023-06-22T06:08:58;11.10;;;10.00;;
27265;SDS011;14766;51.380;13.762;2023-06-22T06:11:26;10.23;;;9.20;;
27265;SDS011;14766;51.380;13.762;2023-06-22T06:13:54;12.00;;;10.25;;
27265;SDS011;14766;51.380;13.762;2023-06-22T06:16:21;11.52;;;10.38;;
27265;SDS011;14766;51.380;13.762;2023-06-22T06:18:51;11.27;;;10.18;;
27265;SDS011;14766;51.380;13.762;2023-06-22T06:21:20;11.82;;;10.38;;
27265;SDS011;14766;51.380;13.762;2023-06-22T06:23:47;11.25;;;10.13;;
27265;SDS011;14766;51.380;13.762;2023-06-22T06:26:14;11.85;;;10.65;;
27265;SDS011;14766;51.380;13.762;2023-06-22T06:28:43;11.90;;;10.70;;
27265;SDS011;14766;51.380;13.762;2023-06-22T06:31:10;11.90;;;10.77;;
27265;SDS011;14766;51.380;13.762;2023-06-22T06:33:39;9.73;;;8.82;;
27265;SDS011;14766;51.380;13.762;2023-06-22T06:36:06;12.70;;;10.65;;
27265;SDS011;14766;51.380;13.762;2023-06-22T06:38:35;10.98;;;9.95;;
27265;SDS011;14766;51.380;13.762;2023-06-22T06:41:02;12.27;;;10.98;;
27265;SDS011;14766;51.380;13.762;2023-06-22T06:43:29;11.30;;;10.30;;
27265;SDS011;14766;51.380;13.762;2023-06-22T06:45:58;10.70;;;9.70;;
27265;SDS011;14766;51.380;13.762;2023-06-22T06:48:26;10.80;;;9.80;;
27265;SDS011;14766;51.380;13.762;2023-06-22T06:50:53;10.48;;;9.48;;
27265;SDS011;14766;51.380;13.762;2023-06-22T06:53:21;12.38;;;9.70;;
27265;SDS011;14766;51.380;13.762;2023-06-22T06:55:49;11.20;;;10.10;;
27265;SDS011;14766;51.380;13.762;2023-06-22T06:58:17;11.45;;;10.35;;
27265;SDS011;14766;51.380;13.762;2023-06-22T07:00:44;10.80;;;9.80;;
27265;SDS011;14766;51.380;13.762;2023-06-22T07:03:11;10.85;;;9.77;;
27265;SDS011;14766;51.380;13.762;2023-06-22T07:05:38;10.70;;;9.60;;
27265;SDS011;14766;51.380;13.762;2023-06-22T07:08:06;10.13;;;9.07;;
27265;SDS011;14766;51.380;13.762;2023-06-22T07:10:33;10.18;;;9.18;;
27265;SDS011;14766;51.380;13.762;2023-06-22T07:13:00;9.73;;;8.77;;
27265;SDS011;14766;51.380;13.762;2023-06-22T07:15:27;9.95;;;8.95;;
27265;SDS011;14766;51.380;13.762;2023-06-22T07:17:54;9.35;;;8.43;;
27265;SDS011;14766;51.380;13.762;2023-06-22T07:20:22;9.40;;;8.60;;
27265;SDS011;14766;51.380;13.762;2023-06-22T07:22:51;9.43;;;8.50;;
27265;SDS011;14766;51.380;13.762;2023-06-22T07:25:20;9.70;;;8.80;;
27265;SDS011;14766;51.380;13.762;2023-06-22T07:27:58;10.48;;;9.38;;
27265;SDS011;14766;51.380;13.762;2023-06-22T07:30:29;9.75;;;8.75;;
27265;SDS011;14766;51.380;13.762;2023-06-22T07:32:59;9.63;;;8.63;;
27265;SDS011;14766;51.380;13.762;2023-06-22T07:35:30;9.82;;;8.93;;
27265;SDS011;14766;51.380;13.762;2023-06-22T07:37:57;9.30;;;8.50;;
27265;SDS011;14766;51.380;13.762;2023-06-22T07:40:25;9.85;;;8.95;;
27265;SDS011;14766;51.380;13.762;2023-06-22T07:42:53;10.10;;;9.20;;
27265;SDS011;14766;51.380;13.762;2023-06-22T07:45:20;9.45;;;8.55;;
27265;SDS011;14766;51.380;13.762;2023-06-22T07:47:47;9.50;;;8.60;;
27265;SDS011;14766;51.380;13.762;2023-06-22T07:50:14;8.55;;;7.72;;
27265;SDS011;14766;51.380;13.762;2023-06-22T07:52:42;9.38;;;8.40;;
27265;SDS011;14766;51.380;13.762;2023-06-22T07:55:09;8.68;;;7.85;;
27265;SDS011;14766;51.380;13.762;2023-06-22T07:57:36;8.13;;;7.43;;
27265;SDS011;14766;51.380;13.762;2023-06-22T08:00:04;9.65;;;8.65;;
27265;SDS011;14766;51.380;13.762;2023-06-22T08:02:43;9.38;;;8.52;;
27265;SDS011;14766;51.380;13.762;2023-06-22T08:05:12;9.75;;;8.90;;
27265;SDS011;14766;51.380;13.762;2023-06-22T08:07:49;9.02;;;8.23;;
27265;SDS011;14766;51.380;13.762;2023-06-22T08:10:18;10.70;;;9.38;;
27265;SDS011;14766;51.380;13.762;2023-06-22T08:12:46;8.80;;;8.00;;
27265;SDS011;14766;51.380;13.762;2023-06-22T08:15:13;9.45;;;8.55;;
27265;SDS011;14766;51.380;13.762;2023-06-22T08:17:40;9.25;;;8.35;;
27265;SDS011;14766;51.380;13.762;2023-06-22T08:20:08;8.98;;;8.07;;
27265;SDS011;14766;51.380;13.762;2023-06-22T08:22:38;8.98;;;8.18;;
27265;SDS011;14766;51.380;13.762;2023-06-22T08:25:06;9.23;;;8.35;;
27265;SDS011;14766;51.380;13.762;2023-06-22T08:27:34;8.80;;;7.85;;
27265;SDS011;14766;51.380;13.762;2023-06-22T08:30:02;9.00;;;8.20;;
27265;SDS011;14766;51.380;13.762;2023-06-22T08:32:29;8.75;;;7.95;;
27265;SDS011;14766;51.380;13.762;2023-06-22T08:34:59;9.30;;;8.50;;
27265;SDS011;14766;51.380;13.762;2023-06-22T08:37:27;9.57;;;8.57;;
27265;SDS011;14766;51.380;13.762;2023-06-22T08:40:03;8.88;;;8.07;;
27265;SDS011;14766;51.380;13.762;2023-06-22T08:42:32;9.55;;;8.65;;
27265;SDS011;14766;51.380;13.762;2023-06-22T08:44:59;8.75;;;7.97;;
27265;SDS011;14766;51.380;13.762;2023-06-22T08:47:29;8.45;;;7.75;;
27265;SDS011;14766;51.380;13.762;2023-06-22T08:49:57;8.23;;;7.50;;
27265;SDS011;14766;51.380;13.762;2023-06-22T08:52:25;10.43;;;8.80;;
27265;SDS011;14766;51.380;13.762;2023-06-22T08:54:54;8.63;;;7.82;;
27265;SDS011;14766;51.380;13.762;2023-06-22T08:57:22;8.07;;;7.38;;
27265;SDS011;14766;51.380;13.762;2023-06-22T08:59:49;7.93;;;7.22;;
27265;SDS011;14766;51.380;13.762;2023-06-22T09:02:19;7.82;;;7.07;;
27265;SDS011;14766;51.380;13.762;2023-06-22T09:04:46;7.45;;;6.80;;
27265;SDS011;14766;51.380;13.762;2023-06-22T09:07:13;8.32;;;7.53;;
27265;SDS011;14766;51.380;13.762;2023-06-22T09:09:40;7.90;;;7.10;;
27265;SDS011;14766;51.380;13.762;2023-06-22T09:12:08;7.25;;;6.40;;
27265;SDS011;14766;51.380;13.762;2023-06-22T09:14:35;7.88;;;6.85;;
27265;SDS011;14766;51.380;13.762;2023-06-22T09:17:02;7.55;;;6.85;;
27265;SDS011;14766;51.380;13.762;2023-06-22T09:19:29;7.47;;;6.70;;
27265;SDS011;14766;51.380;13.762;2023-06-22T09:21:57;9.40;;;7.47;;
27265;SDS011;14766;51.380;13.762;2023-06-22T09:24:24;7.88;;;7.07;;
27265;SDS011;14766;51.380;13.762;2023-06-22T09:26:51;8.55;;;7.75;;
27265;SDS011;14766;51.380;13.762;2023-06-22T09:29:18;7.47;;;6.75;;
27265;SDS011;14766;51.380;13.762;2023-06-22T09:31:45;7.10;;;6.50;;
27265;SDS011;14766;51.380;13.762;2023-06-22T09:34:12;7.85;;;7.15;;
27265;SDS011;14766;51.380;13.762;2023-06-22T09:36:40;8.32;;;7.63;;
27265;SDS011;14766;51.380;13.762;2023-06-22T09:39:09;7.80;;;7.10;;
27265;SDS011;14766;51.380;13.762;2023-06-22T09:41:36;8.00;;;7.25;;
27265;SDS011;14766;51.380;13.762;2023-06-22T09:44:05;7.40;;;6.80;;
27265;SDS011;14766;51.380;13.762;2023-06-22T09:46:33;7.95;;;7.05;;
27265;SDS011;14766;51.380;13.762;2023-06-22T09:49:00;9.23;;;7.25;;
27265;SDS011;14766;51.380;13.762;2023-06-22T09:51:27;7.90;;;7.15;;
27265;SDS011;14766;51.380;13.762;2023-06-22T09:53:54;8.02;;;7.32;;
27265;SDS011;14766;51.380;13.762;2023-06-22T09:56:22;7.35;;;6.75;;
27265;SDS011;14766;51.380;13.762;2023-06-22T09:58:49;7.38;;;6.68;;
27265;SDS011;14766;51.380;13.762;2023-06-22T10:01:22;8.70;;;7.68;;
27265;SDS011;14766;51.380;13.762;2023-06-22T10:03:51;7.40;;;6.70;;
27265;SDS011;14766;51.380;13.762;2023-06-22T10:06:23;7.47;;;6.78;;
27265;SDS011;14766;51.380;13.762;2023-06-22T10:08:51;7.20;;;6.55;;
27265;SDS011;14766;51.380;13.762;2023-06-22T10:11:18;7.57;;;6.80;;
27265;SDS011;14766;51.380;13.762;2023-06-22T10:13:46;7.05;;;6.45;;
27265;SDS011;14766;51.380;13.762;2023-06-22T10:16:15;8.05;;;7.35;;
27265;SDS011;14766;51.380;13.762;2023-06-22T10:18:42;7.72;;;7.03;;
27265;SDS011;14766;51.380;13.762;2023-06-22T10:21:09;7.57;;;6.88;;
27265;SDS011;14766;51.380;13.762;2023-06-22T10:23:38;7.43;;;6.75;;
27265;SDS011;14766;51.380;13.762;2023-06-22T10:26:06;7.90;;;6.70;;
27265;SDS011;14766;51.380;13.762;2023-06-22T10:28:34;7.13;;;6.50;;
27265;SDS011;14766;51.380;13.762;2023-06-22T10:31:01;6.80;;;6.20;;
27265;SDS011;14766;51.380;13.762;2023-06-22T10:33:28;7.43;;;6.72;;
27265;SDS011;14766;51.380;13.762;2023-06-22T10:35:55;7.35;;;6.68;;
27265;SDS011;14766;51.380;13.762;2023-06-22T10:38:22;12.43;;;7.78;;
27265;SDS011;14766;51.380;13.762;2023-06-22T10:40:52;7.20;;;6.50;;
27265;SDS011;14766;51.380;13.762;2023-06-22T10:43:22;7.15;;;6.40;;
27265;SDS011;14766;51.380;13.762;2023-06-22T10:45:49;6.30;;;5.75;;
27265;SDS011;14766;51.380;13.762;2023-06-22T10:48:16;6.38;;;5.78;;
27265;SDS011;14766;51.380;13.762;2023-06-22T10:50:44;6.05;;;5.55;;
27265;SDS011;14766;51.380;13.762;2023-06-22T10:53:14;6.03;;;5.53;;
27265;SDS011;14766;51.380;13.762;2023-06-22T10:55:42;6.28;;;5.68;;
27265;SDS011;14766;51.380;13.762;2023-06-22T10:58:22;6.53;;;5.93;;
27265;SDS011;14766;51.380;13.762;2023-06-22T11:00:50;6.32;;;5.82;;
27265;SDS011;14766;51.380;13.762;2023-06-22T11:03:17;6.50;;;5.90;;
27265;SDS011;14766;51.380;13.762;2023-06-22T11:05:44;6.43;;;5.82;;
27265;SDS011;14766;51.380;13.762;2023-06-22T11:08:14;6.70;;;6.10;;
27265;SDS011;14766;51.380;13.762;2023-06-22T11:10:43;7.80;;;5.60;;
27265;SDS011;14766;51.380;13.762;2023-06-22T11:13:10;6.07;;;5.53;;
27265;SDS011;14766;51.380;13.762;2023-06-22T11:15:38;5.70;;;5.20;;
27265;SDS011;14766;51.380;13.762;2023-06-22T11:18:06;5.72;;;5.22;;
27265;SDS011;14766;51.380;13.762;2023-06-22T11:20:34;5.68;;;5.18;;
27265;SDS011;14766;51.380;13.762;2023-06-22T11:23:05;6.57;;;5.88;;
27265;SDS011;14766;51.380;13.762;2023-06-22T11:25:33;5.97;;;5.40;;
27265;SDS011;14766;51.380;13.762;2023-06-22T11:28:04;6.20;;;5.55;;
27265;SDS011;14766;51.380;13.762;2023-06-22T11:30:31;6.80;;;6.03;;
27265;SDS011;14766;51.380;13.762;2023-06-22T11:32:58;6.07;;;5.57;;
27265;SDS011;14766;51.380;13.762;2023-06-22T11:35:26;5.45;;;4.95;;
27265;SDS011;14766;51.380;13.762;2023-06-22T11:37:54;5.93;;;5.43;;
27265;SDS011;14766;51.380;13.762;2023-06-22T11:40:23;5.72;;;5.22;;
27265;SDS011;14766;51.380;13.762;2023-06-22T11:42:51;5.60;;;5.15;;
27265;SDS011;14766;51.380;13.762;2023-06-22T11:45:18;6.47;;;5.85;;
27265;SDS011;14766;51.380;13.762;2023-06-22T11:47:47;5.70;;;5.20;;
27265;SDS011;14766;51.380;13.762;2023-06-22T11:50:14;5.72;;;5.22;;
27265;SDS011;14766;51.380;13.762;2023-06-22T11:52:41;5.18;;;4.63;;
27265;SDS011;14766;51.380;13.762;2023-06-22T11:55:08;6.15;;;5.60;;
27265;SDS011;14766;51.380;13.762;2023-06-22T11:57:36;6.47;;;5.88;;
27265;SDS011;14766;51.380;13.762;2023-06-22T12:00:05;6.00;;;5.47;;
27265;SDS011;14766;51.380;13.762;2023-06-22T12:02:42;6.90;;;6.18;;
27265;SDS011;14766;51.380;13.762;2023-06-22T12:05:11;6.22;;;5.60;;
27265;SDS011;14766;51.380;13.762;2023-06-22T12:07:39;5.70;;;5.20;;
27265;SDS011;14766;51.380;13.762;2023-06-22T12:10:06;5.72;;;5.22;;
27265;SDS011;14766;51.380;13.762;2023-06-22T12:12:35;6.05;;;5.45;;
27265;SDS011;14766;51.380;13.762;2023-06-22T12:15:04;6.05;;;5.45;;
27265;SDS011;14766;51.380;13.762;2023-06-22T12:17:32;6.35;;;5.72;;
27265;SDS011;14766;51.380;13.762;2023-06-22T12:19:59;6.93;;;6.30;;
27265;SDS011;14766;51.380;13.762;2023-06-22T12:22:26;6.18;;;5.60;;
27265;SDS011;14766;51.380;13.762;2023-06-22T12:24:53;6.68;;;5.43;;
27265;SDS011;14766;51.380;13.762;2023-06-22T12:27:20;6.88;;;5.55;;
27265;SDS011;14766;51.380;13.762;2023-06-22T12:29:47;5.72;;;5.22;;
27265;SDS011;14766;51.380;13.762;2023-06-22T12:32:14;5.25;;;4.82;;
27265;SDS011;14766;51.380;13.762;2023-06-22T12:34:42;5.03;;;4.63;;
27265;SDS011;14766;51.380;13.762;2023-06-22T12:37:10;5.43;;;4.93;;
27265;SDS011;14766;51.380;13.762;2023-06-22T12:39:37;5.63;;;5.10;;
27265;SDS011;14766;51.380;13.762;2023-06-22T12:42:09;5.63;;;5.13;;
27265;SDS011;14766;51.380;13.762;2023-06-22T12:44:39;5.78;;;5.28;;
27265;SDS011;14766;51.380;13.762;2023-06-22T12:47:06;6.40;;;5.55;;
27265;SDS011;14766;51.380;13.762;2023-06-22T12:49:35;6.15;;;5.55;;
27265;SDS011;14766;51.380;13.762;2023-06-22T12:52:02;5.93;;;5.32;;
27265;SDS011;14766;51.380;13.762;2023-06-22T12:54:34;6.90;;;5.47;;
27265;SDS011;14766;51.380;13.762;2023-06-22T12:57:20;5.93;;;5.43;;
27265;SDS011;14766;51.380;13.762;2023-06-22T12:59:47;6.30;;;5.45;;
27265;SDS011;14766;51.380;13.762;2023-06-22T13:02:14;5.38;;;4.97;;
27265;SDS011;14766;51.380;13.762;2023-06-22T13:04:41;7.45;;;5.85;;
27265;SDS011;14766;51.380;13.762;2023-06-22T13:07:10;6.00;;;5.40;;
27265;SDS011;14766;51.380;13.762;2023-06-22T13:09:41;6.15;;;5.60;;
27265;SDS011;14766;51.380;13.762;2023-06-22T13:12:08;6.10;;;5.50;;
27265;SDS011;14766;51.380;13.762;2023-06-22T13:14:36;6.07;;;5.55;;
27265;SDS011;14766;51.380;13.762;2023-06-22T13:17:03;6.45;;;5.43;;
27265;SDS011;14766;51.380;13.762;2023-06-22T13:19:30;6.20;;;5.70;;
27265;SDS011;14766;51.380;13.762;2023-06-22T13:21:59;5.72;;;5.22;;
27265;SDS011;14766;51.380;13.762;2023-06-22T13:24:26;6.53;;;5.90;;
27265;SDS011;14766;51.380;13.762;2023-06-22T13:26:53;5.60;;;5.10;;
27265;SDS011;14766;51.380;13.762;2023-06-22T13:29:22;6.75;;;5.57;;
27265;SDS011;14766;51.380;13.762;2023-06-22T13:31:51;5.97;;;5.45;;
27265;SDS011;14766;51.380;13.762;2023-06-22T13:34:18;5.82;;;5.32;;
27265;SDS011;14766;51.380;13.762;2023-06-22T13:36:45;6.03;;;5.43;;
27265;SDS011;14766;51.380;13.762;2023-06-22T13:39:13;6.53;;;5.93;;
27265;SDS011;14766;51.380;13.762;2023-06-22T13:41:40;5.82;;;5.30;;
27265;SDS011;14766;51.380;13.762;2023-06-22T13:44:10;5.80;;;5.30;;
27265;SDS011;14766;51.380;13.762;2023-06-22T13:46:37;5.93;;;5.43;;
27265;SDS011;14766;51.380;13.762;2023-06-22T13:49:04;6.03;;;5.53;;
27265;SDS011;14766;51.380;13.762;2023-06-22T13:51:31;5.97;;;5.30;;
27265;SDS011;14766;51.380;13.762;2023-06-22T13:53:59;6.10;;;5.60;;
27265;SDS011;14766;51.380;13.762;2023-06-22T13:56:26;6.10;;;5.50;;
27265;SDS011;14766;51.380;13.762;2023-06-22T13:58:53;6.07;;;5.47;;
27265;SDS011;14766;51.380;13.762;2023-06-22T14:01:20;6.20;;;5.60;;
27265;SDS011;14766;51.380;13.762;2023-06-22T14:03:47;5.97;;;5.47;;
27265;SDS011;14766;51.380;13.762;2023-06-22T14:06:15;6.00;;;5.40;;
27265;SDS011;14766;51.380;13.762;2023-06-22T14:08:42;6.10;;;5.50;;
27265;SDS011;14766;51.380;13.762;2023-06-22T14:11:10;5.85;;;5.35;;
27265;SDS011;14766;51.380;13.762;2023-06-22T14:13:37;6.22;;;5.35;;
27265;SDS011;14766;51.380;13.762;2023-06-22T14:16:05;6.07;;;5.40;;
27265;SDS011;14766;51.380;13.762;2023-06-22T14:18:32;6.82;;;5.50;;
27265;SDS011;14766;51.380;13.762;2023-06-22T14:20:59;6.32;;;5.72;;
27265;SDS011;14766;51.380;13.762;2023-06-22T14:23:26;5.25;;;4.75;;
27265;SDS011;14766;51.380;13.762;2023-06-22T14:25:54;6.00;;;5.35;;
27265;SDS011;14766;51.380;13.762;2023-06-22T14:28:23;5.50;;;4.97;;
27265;SDS011;14766;51.380;13.762;2023-06-22T14:30:50;5.75;;;5.25;;
27265;SDS011;14766;51.380;13.762;2023-06-22T14:33:17;6.43;;;5.65;;
27265;SDS011;14766;51.380;13.762;2023-06-22T14:35:45;7.13;;;6.07;;
27265;SDS011;14766;51.380;13.762;2023-06-22T14:38:12;6.00;;;5.40;;
27265;SDS011;14766;51.380;13.762;2023-06-22T14:40:39;6.10;;;5.50;;
27265;SDS011;14766;51.380;13.762;2023-06-22T14:43:25;6.97;;;5.40;;
27265;SDS011;14766;51.380;13.762;2023-06-22T14:45:52;6.10;;;5.50;;
27265;SDS011;14766;51.380;13.762;2023-06-22T14:48:19;5.97;;;5.47;;
27265;SDS011;14766;51.380;13.762;2023-06-22T14:50:47;7.45;;;6.28;;